Time;durP1;ratioP1;P1;durP2;ratioP2;P2;SDS_P1;SDS_P2;PMS_P1;PMS_P2;Temp;Humidity;BMP_temperature;BMP_pressure;BME280_temperature;BME280_humidity;BME280_pressure;Samples;Min_cycle;Max_cycle;Signal;HPM_P1;HPM_P2
2022/08/26 00:00:40;;;;;;;24.30;17.90;;;21.10;99.90;;;;;;5069488;28;20024;-53
2022/08/26 00:03:06;;;;;;;24.60;17.05;;;21.10;99.90;;;;;;5086114;28;20070;-53
2022/08/26 00:05:31;;;;;;;23.77;17.02;;;21.10;99.90;;;;;;5090163;28;20407;-53
2022/08/26 00:07:57;;;;;;;25.15;15.68;;;21.10;99.90;;;;;;5090699;28;20334;-53
2022/08/26 00:10:23;;;;;;;23.88;15.05;;;21.10;99.90;;;;;;5089907;28;20406;-53
2022/08/26 00:12:49;;;;;;;21.33;14.32;;;21.10;99.90;;;;;;5089402;28;20078;-53
2022/08/26 00:15:17;;;;;;;24.30;15.00;;;21.10;99.90;;;;;;5089266;28;20095;-53
2022/08/26 00:17:43;;;;;;;18.30;14.23;;;21.00;99.90;;;;;;5080683;28;20040;-53
2022/08/26 00:20:19;;;;;;;17.15;13.40;;;21.00;99.90;;;;;;5085993;28;20024;-54
2022/08/26 00:22:44;;;;;;;18.95;13.90;;;21.00;99.90;;;;;;5088852;28;20024;-54
2022/08/26 00:25:11;;;;;;;23.98;15.80;;;20.90;99.90;;;;;;5088214;28;20035;-54
2022/08/26 00:27:36;;;;;;;25.08;15.13;;;20.90;99.90;;;;;;5089692;28;20479;-53
2022/08/26 00:30:06;;;;;;;19.65;14.57;;;20.90;99.90;;;;;;5089688;28;20024;-53
2022/08/26 00:32:32;;;;;;;16.63;14.00;;;20.90;99.90;;;;;;5088913;28;20475;-53
2022/08/26 00:34:57;;;;;;;19.52;14.63;;;20.80;99.90;;;;;;5089572;28;20024;-53
2022/08/26 00:37:23;;;;;;;21.52;14.60;;;20.80;99.90;;;;;;5089367;28;20486;-53
2022/08/26 00:39:48;;;;;;;19.33;14.02;;;20.80;99.90;;;;;;5077573;28;20024;-54
2022/08/26 00:42:14;;;;;;;22.15;14.25;;;20.80;99.90;;;;;;5080108;28;20015;-53
2022/08/26 00:44:39;;;;;;;24.95;15.65;;;20.80;99.90;;;;;;5089251;28;20131;-54
2022/08/26 00:47:18;;;;;;;22.20;14.07;;;20.70;99.90;;;;;;5089297;28;20085;-53
2022/08/26 00:49:46;;;;;;;20.05;14.25;;;20.70;99.90;;;;;;5089784;28;20016;-54
2022/08/26 00:52:16;;;;;;;19.27;14.73;;;20.70;99.90;;;;;;5088919;28;20107;-53
2022/08/26 00:54:48;;;;;;;18.05;14.32;;;20.60;99.90;;;;;;5088646;28;20059;-53
2022/08/26 00:57:16;;;;;;;16.70;14.65;;;20.60;99.90;;;;;;5089135;28;20024;-53
2022/08/26 00:59:44;;;;;;;17.67;13.93;;;20.50;99.90;;;;;;5088540;28;20035;-53
2022/08/26 01:02:10;;;;;;;18.88;14.38;;;20.50;99.90;;;;;;5088100;28;20027;-53
2022/08/26 01:04:38;;;;;;;23.35;14.65;;;20.40;99.90;;;;;;5088734;28;20468;-53
2022/08/26 01:07:04;;;;;;;22.42;14.68;;;20.30;99.90;;;;;;5088879;28;20024;-54
2022/08/26 01:09:31;;;;;;;22.45;15.45;;;20.30;99.90;;;;;;5083603;28;20446;-53
2022/08/26 01:11:59;;;;;;;19.02;14.30;;;20.30;99.90;;;;;;5079897;28;20008;-53
2022/08/26 01:14:29;;;;;;;20.30;14.20;;;20.20;99.90;;;;;;5088532;28;20130;-53
2022/08/26 01:16:55;;;;;;;20.75;14.63;;;20.20;99.90;;;;;;5088775;28;20508;-53
2022/08/26 01:19:36;;;;;;;25.75;16.10;;;20.20;99.90;;;;;;5089189;28;20123;-53
2022/08/26 01:22:25;;;;;;;25.38;16.05;;;20.20;99.90;;;;;;5088261;28;20483;-53
2022/08/26 01:24:51;;;;;;;21.58;15.82;;;20.20;99.90;;;;;;5088220;28;20040;-53
2022/08/26 01:27:19;;;;;;;19.83;15.98;;;20.10;99.90;;;;;;5088373;28;20039;-53
2022/08/26 01:29:47;;;;;;;22.13;16.80;;;20.10;99.90;;;;;;5088648;28;20128;-53
2022/08/26 01:32:17;;;;;;;22.38;16.42;;;20.10;99.90;;;;;;5086484;28;20383;-54
2022/08/26 01:34:45;;;;;;;31.30;16.77;;;20.10;99.90;;;;;;5088730;28;20031;-54
2022/08/26 01:37:17;;;;;;;23.75;17.45;;;20.00;99.90;;;;;;5088657;28;20031;-53
2022/08/26 01:39:45;;;;;;;22.00;17.20;;;20.00;99.90;;;;;;5083254;28;20024;-53
2022/08/26 01:42:13;;;;;;;23.63;16.13;;;20.00;99.90;;;;;;5079142;28;20035;-53
2022/08/26 01:44:45;;;;;;;20.40;15.55;;;20.00;99.90;;;;;;5087195;28;20028;-53
2022/08/26 01:47:12;;;;;;;23.73;16.38;;;20.00;99.90;;;;;;5088957;28;20032;-53
2022/08/26 01:49:40;;;;;;;20.65;15.85;;;19.90;99.90;;;;;;5088646;28;20024;-53
2022/08/26 01:52:08;;;;;;;21.45;17.02;;;19.90;99.90;;;;;;5086390;28;20027;-53
2022/08/26 01:54:35;;;;;;;25.40;16.80;;;19.90;99.90;;;;;;5088339;28;20020;-53
2022/08/26 01:57:01;;;;;;;25.65;16.42;;;19.90;99.90;;;;;;5087075;28;20487;-53
2022/08/26 01:59:28;;;;;;;20.55;16.98;;;19.90;99.90;;;;;;5088100;28;20032;-53
2022/08/26 02:01:54;;;;;;;26.40;17.88;;;19.90;99.90;;;;;;5087860;28;20145;-53
2022/08/26 02:04:31;;;;;;;25.23;17.10;;;19.90;99.90;;;;;;5088244;28;20107;-53
2022/08/26 02:06:58;;;;;;;24.45;16.48;;;19.80;99.90;;;;;;5088639;28;20020;-53
2022/08/26 02:09:24;;;;;;;24.23;17.45;;;19.80;99.90;;;;;;5083160;28;20207;-53
2022/08/26 02:11:50;;;;;;;24.35;18.52;;;19.80;99.90;;;;;;5080539;28;20012;-53
2022/08/26 02:14:20;;;;;;;26.10;17.45;;;19.80;99.90;;;;;;5090866;28;20025;-53
2022/08/26 02:16:47;;;;;;;;;;;19.80;99.90;;;;;;5092953;28;20028;-53
2022/08/26 02:19:22;;;;;;;26.00;17.08;;;19.80;99.90;;;;;;5091986;28;19919;-53
2022/08/26 02:21:50;;;;;;;26.33;18.20;;;19.80;99.90;;;;;;5087311;28;20031;-53
2022/08/26 02:24:20;;;;;;;23.38;18.00;;;19.80;99.90;;;;;;5083668;28;20612;-53
2022/08/26 02:26:46;;;;;;;25.13;18.38;;;19.80;99.90;;;;;;5092796;28;20158;-53
2022/08/26 02:29:22;;;;;;;22.05;17.25;;;19.70;99.90;;;;;;5092268;28;20023;-53
2022/08/26 02:31:50;;;;;;;22.85;17.00;;;19.70;99.90;;;;;;5091383;28;20376;-53
2022/08/26 02:34:22;;;;;;;22.77;17.00;;;19.70;99.90;;;;;;5091768;28;20032;-53
2022/08/26 02:36:48;;;;;;;24.88;17.25;;;19.60;99.90;;;;;;5091869;28;20028;-52
2022/08/26 02:39:15;;;;;;;26.33;18.83;;;19.60;99.90;;;;;;5091749;28;20024;-54
2022/08/26 02:41:41;;;;;;;23.73;17.33;;;19.60;99.90;;;;;;5091161;28;20082;-54
2022/08/26 02:44:07;;;;;;;23.13;18.25;;;19.60;99.90;;;;;;5091466;28;20125;-53
2022/08/26 02:46:33;;;;;;;25.67;18.25;;;19.50;99.90;;;;;;5091241;28;20028;-53
2022/08/26 02:49:00;;;;;;;24.40;16.73;;;19.50;99.90;;;;;;5091257;28;20043;-53
2022/08/26 02:51:25;;;;;;;19.05;16.38;;;19.50;99.90;;;;;;5087403;28;20012;-53
2022/08/26 02:53:51;;;;;;;25.80;18.25;;;19.50;99.90;;;;;;5082953;28;20016;-53
2022/08/26 02:56:17;;;;;;;20.92;16.50;;;19.40;99.90;;;;;;5091443;28;20380;-53
2022/08/26 02:58:43;;;;;;;22.15;16.38;;;19.40;99.90;;;;;;5091311;28;20430;-53
2022/08/26 03:01:20;;;;;;;23.60;17.05;;;19.40;99.90;;;;;;5090491;28;20532;-53
2022/08/26 03:03:46;;;;;;;24.70;18.92;;;19.40;99.90;;;;;;5088931;28;20102;-53
2022/08/26 03:06:11;;;;;;;23.30;18.75;;;19.30;99.90;;;;;;5077544;28;20029;-53
2022/08/26 03:08:37;;;;;;;26.60;18.40;;;19.40;99.90;;;;;;5091070;28;20020;-53
2022/08/26 03:11:02;;;;;;;25.52;19.38;;;19.30;99.90;;;;;;5090549;28;20391;-52
2022/08/26 03:13:28;;;;;;;27.30;19.33;;;19.30;99.90;;;;;;5090600;28;20136;-53
2022/08/26 03:15:54;;;;;;;27.70;17.17;;;19.30;99.90;;;;;;5090785;28;20482;-53
2022/08/26 03:18:19;;;;;;;22.25;16.98;;;19.20;99.90;;;;;;5090483;28;20037;-53
2022/08/26 03:20:45;;;;;;;22.60;18.02;;;19.20;99.90;;;;;;5090574;28;20544;-53
2022/08/26 03:23:11;;;;;;;20.45;17.23;;;19.20;99.90;;;;;;5077944;28;20028;-53
2022/08/26 03:25:36;;;;;;;26.27;17.88;;;19.10;99.90;;;;;;5050573;28;20048;-52
2022/08/26 03:28:02;;;;;;;27.30;18.23;;;19.10;99.90;;;;;;5050491;28;20029;-53
2022/08/26 03:30:40;;;;;;;24.70;18.88;;;19.10;99.90;;;;;;5050396;28;20025;-53
2022/08/26 03:33:10;;;;;;;22.90;17.70;;;19.00;99.90;;;;;;5050523;28;20021;-53
2022/08/26 03:35:38;;;;;;;26.35;19.13;;;19.10;99.90;;;;;;5068692;28;20029;-53
2022/08/26 03:38:06;;;;;;;21.38;17.23;;;19.10;99.90;;;;;;5070006;28;20119;-53
2022/08/26 03:40:33;;;;;;;27.50;19.02;;;19.10;99.90;;;;;;5069513;28;20086;-54
2022/08/26 03:42:59;;;;;;;27.98;19.23;;;19.10;99.90;;;;;;5069390;28;20028;-53
2022/08/26 03:45:25;;;;;;;28.10;19.25;;;19.10;99.90;;;;;;5069805;28;20046;-54
2022/08/26 03:47:51;;;;;;;31.80;19.45;;;19.00;99.90;;;;;;5069782;28;20025;-53
2022/08/26 03:50:19;;;;;;;23.70;18.23;;;19.00;99.90;;;;;;5069548;28;20036;-53
2022/08/26 03:52:45;;;;;;;26.30;19.15;;;19.00;99.90;;;;;;5070811;28;20031;-53
2022/08/26 03:55:12;;;;;;;26.40;18.77;;;19.00;99.90;;;;;;5070985;28;20032;-53
2022/08/26 03:57:38;;;;;;;30.23;19.33;;;19.00;99.90;;;;;;5069292;28;20055;-53
2022/08/26 04:00:07;;;;;;;20.70;18.23;;;18.90;99.90;;;;;;5069514;28;20600;-53
2022/08/26 04:02:32;;;;;;;29.70;18.38;;;19.00;99.90;;;;;;5069238;28;20029;-53
2022/08/26 04:04:58;;;;;;;25.95;17.15;;;18.90;99.90;;;;;;5069820;28;20031;-53
2022/08/26 04:07:24;;;;;;;31.13;18.52;;;18.90;99.90;;;;;;5069314;28;20070;-53
2022/08/26 04:09:54;;;;;;;24.10;17.45;;;18.90;99.90;;;;;;5066862;28;20470;-53
2022/08/26 04:12:19;;;;;;;26.98;18.98;;;19.00;99.90;;;;;;5069574;28;20029;-53
2022/08/26 04:14:46;;;;;;;26.88;19.90;;;19.00;99.90;;;;;;5069858;28;20024;-53
2022/08/26 04:17:12;;;;;;;21.52;18.45;;;18.90;99.90;;;;;;5069443;28;20024;-53
2022/08/26 04:19:37;;;;;;;30.98;19.83;;;19.00;99.90;;;;;;5068249;28;20159;-53
2022/08/26 04:22:03;;;;;;;25.95;20.42;;;18.90;99.90;;;;;;5069094;28;20423;-52
2022/08/26 04:24:29;;;;;;;24.15;18.92;;;19.00;99.90;;;;;;5081165;28;20431;-53
2022/08/26 04:26:55;;;;;;;30.35;20.27;;;19.00;99.90;;;;;;5088243;28;20024;-53
2022/08/26 04:29:24;;;;;;;27.30;19.65;;;18.90;99.90;;;;;;5088565;28;20407;-53
2022/08/26 04:32:29;;;;;;;25.50;20.13;;;19.00;99.90;;;;;;5073665;28;20020;-54
2022/08/26 04:34:55;;;;;;;28.45;20.27;;;19.00;99.90;;;;;;5025694;28;20042;-52
2022/08/26 04:37:21;;;;;;;27.25;19.55;;;19.00;99.90;;;;;;5026224;28;20038;-52
2022/08/26 04:39:51;;;;;;;31.63;20.80;;;19.00;99.90;;;;;;5044498;28;20598;-52
2022/08/26 04:42:16;;;;;;;27.77;19.02;;;19.00;99.90;;;;;;5086024;28;20119;-52
2022/08/26 04:44:41;;;;;;;30.50;19.73;;;19.00;99.90;;;;;;5088700;28;20111;-52
2022/08/26 04:47:07;;;;;;;29.08;20.90;;;19.10;99.90;;;;;;5089259;28;20487;-52
2022/08/26 04:49:32;;;;;;;25.35;19.30;;;19.00;99.90;;;;;;5087913;28;20048;-52
2022/08/26 04:51:58;;;;;;;32.83;22.27;;;19.00;99.90;;;;;;5086237;28;20020;-52
2022/08/26 04:54:26;;;;;;;25.77;19.70;;;19.00;99.90;;;;;;5080979;28;20031;-53
2022/08/26 04:56:52;;;;;;;29.27;20.75;;;19.00;99.90;;;;;;5088791;28;20101;-52
2022/08/26 04:59:18;;;;;;;30.63;20.50;;;19.10;99.90;;;;;;5089100;28;20504;-52
2022/08/26 05:01:45;;;;;;;32.10;20.60;;;19.10;99.90;;;;;;5087890;28;20026;-52
2022/08/26 05:04:11;;;;;;;26.55;20.73;;;19.10;99.90;;;;;;5087687;28;20032;-52
2022/08/26 05:06:37;;;;;;;29.83;20.75;;;19.10;99.90;;;;;;5075207;28;20031;-52
2022/08/26 05:09:03;;;;;;;33.25;21.02;;;19.10;99.90;;;;;;5083154;28;20028;-52
2022/08/26 05:11:29;;;;;;;31.30;20.95;;;19.10;99.90;;;;;;5088771;28;20026;-52
2022/08/26 05:13:55;;;;;;;30.17;20.52;;;19.10;99.90;;;;;;5088555;28;20024;-52
2022/08/26 05:16:21;;;;;;;28.63;20.00;;;19.10;99.90;;;;;;5089135;28;20027;-53
2022/08/26 05:18:46;;;;;;;26.35;20.25;;;19.20;99.90;;;;;;5088394;28;20499;-53
2022/08/26 05:21:23;;;;;;;27.65;19.83;;;19.20;99.90;;;;;;5087939;28;20057;-52
2022/08/26 05:23:50;;;;;;;31.85;19.92;;;19.20;99.90;;;;;;5088125;28;20032;-53
2022/08/26 05:26:17;;;;;;;33.83;22.40;;;19.20;99.90;;;;;;5088918;28;20077;-52
2022/08/26 05:28:43;;;;;;;33.97;21.23;;;19.30;99.90;;;;;;5088260;28;20028;-52
2022/08/26 05:31:17;;;;;;;28.02;19.48;;;19.30;99.90;;;;;;5087951;28;20020;-52
2022/08/26 05:33:43;;;;;;;36.40;21.00;;;19.40;99.90;;;;;;5088191;28;20028;-54
2022/08/26 05:36:15;;;;;;;29.75;20.08;;;19.40;99.90;;;;;;5085081;28;20034;-52
2022/08/26 05:38:42;;;;;;;30.33;20.63;;;19.40;99.90;;;;;;5073637;28;20497;-52
2022/08/26 05:41:20;;;;;;;30.52;20.33;;;19.40;99.90;;;;;;5087681;28;20402;-51
2022/08/26 05:43:46;;;;;;;30.30;20.90;;;19.50;99.90;;;;;;5073615;28;20016;-53
2022/08/26 05:46:12;;;;;;;27.13;19.90;;;19.50;99.90;;;;;;5085244;28;20039;-53
2022/08/26 05:48:38;;;;;;;31.92;20.58;;;19.50;99.90;;;;;;5092381;28;20024;-53
2022/08/26 05:51:07;;;;;;;30.48;20.70;;;19.50;99.90;;;;;;5091968;28;20031;-53
2022/08/26 05:53:34;;;;;;;28.63;19.08;;;19.60;99.90;;;;;;5080316;28;20020;-52
2022/08/26 05:56:00;;;;;;;28.33;19.02;;;19.60;99.90;;;;;;5084032;28;20081;-52
2022/08/26 05:58:26;;;;;;;24.25;17.80;;;19.60;99.90;;;;;;5090736;28;20048;-53
2022/08/26 06:01:16;;;;;;;32.55;19.10;;;19.70;99.90;;;;;;5083511;28;20545;-52
2022/08/26 06:03:45;;;;;;;23.80;16.77;;;19.70;99.90;;;;;;5092650;28;20538;-52
2022/08/26 06:06:14;;;;;;;21.95;18.45;;;19.80;99.90;;;;;;5092162;28;20034;-52
2022/08/26 06:08:40;;;;;;;31.08;17.90;;;19.80;99.90;;;;;;5092238;28;20433;-53
2022/08/26 06:11:09;;;;;;;27.65;17.90;;;19.90;99.90;;;;;;5091648;28;20020;-52
2022/08/26 06:13:36;;;;;;;25.60;17.10;;;20.00;99.90;;;;;;5092226;28;20020;-52
2022/08/26 06:16:08;;;;;;;25.65;16.85;;;20.00;99.90;;;;;;5092463;28;20084;-52
2022/08/26 06:18:37;;;;;;;33.30;18.90;;;20.20;99.90;;;;;;5091673;28;20111;-53
2022/08/26 06:21:29;;;;;;;24.23;17.25;;;20.20;99.90;;;;;;5091474;28;20024;-53
2022/08/26 06:26:47;;;;;;;32.55;18.92;;;20.30;99.90;;;;;;5091527;28;20097;-52
2022/08/26 06:29:13;;;;;;;26.50;17.75;;;20.40;99.90;;;;;;5076278;28;20020;-52
2022/08/26 06:31:38;;;;;;;37.17;19.80;;;20.50;99.90;;;;;;5072000;28;20457;-53
2022/08/26 06:34:04;;;;;;;30.50;18.13;;;20.60;99.90;;;;;;5071034;28;20086;-52
2022/08/26 06:36:31;;;;;;;24.90;16.35;;;20.60;99.90;;;;;;5070983;28;20095;-53
2022/08/26 06:39:01;;;;;;;27.13;18.63;;;20.70;99.90;;;;;;5071322;28;20547;-53
2022/08/26 06:41:27;;;;;;;25.52;16.90;;;20.80;99.90;;;;;;5070321;28;20485;-53
2022/08/26 06:43:52;;;;;;;32.42;17.23;;;20.90;99.90;;;;;;5071062;28;20056;-53
2022/08/26 06:46:39;;;;;;;27.77;16.92;;;20.90;99.90;;;;;;5069499;28;20036;-53
2022/08/26 06:49:05;;;;;;;25.50;16.13;;;21.10;99.90;;;;;;5039696;28;20096;-53
2022/08/26 06:51:33;;;;;;;22.98;16.13;;;21.10;99.90;;;;;;5053590;28;20191;-56
2022/08/26 06:54:00;;;;;;;20.48;15.43;;;21.20;99.90;;;;;;5045852;28;20064;-53
2022/08/26 06:56:34;;;;;;;25.25;16.27;;;21.20;99.90;;;;;;5056572;28;20051;-53
2022/08/26 06:59:00;;;;;;;23.30;15.80;;;21.30;99.90;;;;;;5067117;28;20077;-53
2022/08/26 07:01:29;;;;;;;24.95;16.00;;;21.40;99.90;;;;;;5069451;28;20021;-53
2022/08/26 07:03:57;;;;;;;20.10;14.68;;;21.60;99.90;;;;;;5082514;28;20322;-55
2022/08/26 07:06:24;;;;;;;21.40;15.30;;;21.60;99.90;;;;;;5070563;28;20024;-53
2022/08/26 07:08:52;;;;;;;26.70;15.80;;;21.70;99.90;;;;;;5068745;28;20033;-53
2022/08/26 07:11:18;;;;;;;34.35;16.15;;;21.80;99.90;;;;;;5068528;28;20487;-54
2022/08/26 07:13:45;;;;;;;27.13;14.90;;;22.00;99.90;;;;;;5068895;28;20059;-54
2022/08/26 07:16:13;;;;;;;22.98;15.27;;;22.10;99.90;;;;;;5069336;28;20081;-53
2022/08/26 07:18:40;;;;;;;20.73;14.75;;;22.20;99.90;;;;;;5070472;28;20060;-53
2022/08/26 07:21:10;;;;;;;22.58;14.73;;;22.30;99.90;;;;;;5069712;28;20032;-54
2022/08/26 07:23:36;;;;;;;23.13;14.27;;;22.40;99.90;;;;;;5071941;28;20174;-53
2022/08/26 07:26:30;;;;;;;24.30;15.65;;;22.50;99.90;;;;;;5080232;28;20115;-54
2022/08/26 07:28:57;;;;;;;23.83;15.45;;;22.60;99.90;;;;;;5069324;28;20468;-53
2022/08/26 07:31:26;;;;;;;19.40;14.73;;;22.70;99.90;;;;;;5069510;28;20032;-54
2022/08/26 07:33:52;;;;;;;22.70;14.68;;;22.80;99.90;;;;;;5068117;28;20025;-55
2022/08/26 07:36:20;;;;;;;23.92;13.75;;;22.90;99.90;;;;;;5070035;28;20024;-54
2022/08/26 07:38:47;;;;;;;18.92;13.73;;;23.10;99.90;;;;;;5070607;28;20066;-54
2022/08/26 07:41:13;;;;;;;22.23;14.15;;;23.20;99.90;;;;;;5069594;28;20028;-55
2022/08/26 07:43:39;;;;;;;117.38;85.47;;;23.40;99.90;;;;;;5070508;28;20017;-55
2022/08/26 07:46:06;;;;;;;43.28;32.90;;;23.80;99.90;;;;;;5070652;28;20489;-55
2022/08/26 07:48:32;;;;;;;28.27;18.80;;;24.10;99.90;;;;;;5070183;28;20027;-55
2022/08/26 07:50:58;;;;;;;24.30;13.85;;;24.30;99.90;;;;;;5083299;28;20410;-55
2022/08/26 07:53:26;;;;;;;21.35;12.80;;;24.60;99.90;;;;;;5090322;28;20028;-55
2022/08/26 07:55:51;;;;;;;22.23;12.32;;;24.90;99.90;;;;;;5090273;28;20028;-56
2022/08/26 07:58:17;;;;;;;22.45;12.50;;;25.40;99.90;;;;;;5084467;28;20081;-55
2022/08/26 08:00:43;;;;;;;19.77;11.50;;;26.00;99.90;;;;;;5081992;28;20119;-55
2022/08/26 08:03:08;;;;;;;15.00;9.90;;;26.80;99.90;;;;;;5090300;28;20024;-55
2022/08/26 08:05:36;;;;;;;15.68;9.40;;;27.70;99.90;;;;;;5090334;28;20161;-55
2022/08/26 08:08:04;;;;;;;24.17;10.95;;;28.60;99.90;;;;;;5090250;28;20052;-55
2022/08/26 08:10:30;;;;;;;19.33;8.65;;;29.50;99.60;;;;;;5089363;28;20081;-55
2022/08/26 08:12:57;;;;;;;23.13;10.05;;;30.40;97.50;;;;;;5077993;28;20074;-55
2022/08/26 08:15:26;;;;;;;26.52;10.75;;;31.40;95.50;;;;;;5087789;28;20024;-54
2022/08/26 08:17:53;;;;;;;20.27;10.38;;;31.80;93.30;;;;;;5086836;28;20070;-55
2022/08/26 08:20:19;;;;;;;37.67;23.00;;;32.80;90.70;;;;;;5078759;28;20066;-56
2022/08/26 08:22:45;;;;;;;40.20;27.20;;;33.00;89.90;;;;;;5089310;28;20028;-55
2022/08/26 08:25:11;;;;;;;17.75;11.63;;;33.50;88.90;;;;;;5078998;28;20108;-56
2022/08/26 08:27:38;;;;;;;21.75;9.00;;;34.20;86.40;;;;;;5089628;28;20098;-54
2022/08/26 08:30:06;;;;;;;18.55;8.45;;;35.00;83.10;;;;;;5089437;28;20115;-56
2022/08/26 08:32:31;;;;;;;22.88;8.45;;;36.00;79.80;;;;;;5088857;28;20032;-56
2022/08/26 08:34:58;;;;;;;13.68;8.23;;;36.60;75.60;;;;;;5089271;28;20016;-55
2022/08/26 08:37:24;;;;;;;24.45;8.27;;;36.70;74.50;;;;;;5089571;28;20050;-55
2022/08/26 08:39:49;;;;;;;27.70;8.48;;;37.30;72.00;;;;;;5089386;28;20031;-55
2022/08/26 08:42:33;;;;;;;22.30;8.70;;;37.90;70.00;;;;;;5088745;28;20028;-55
2022/08/26 08:45:24;;;;;;;22.10;8.27;;;37.60;68.50;;;;;;5089485;28;20031;-54
2022/08/26 08:48:00;;;;;;;19.27;8.25;;;37.00;70.30;;;;;;5083181;28;20036;-54
2022/08/26 08:50:32;;;;;;;23.90;9.25;;;37.20;69.80;;;;;;5089251;28;20024;-55
2022/08/26 08:53:02;;;;;;;215.05;192.98;;;36.30;70.20;;;;;;5089636;28;20289;-55
2022/08/26 08:55:35;;;;;;;65.63;52.45;;;36.10;71.60;;;;;;5079650;28;20035;-55
2022/08/26 08:58:05;;;;;;;27.23;11.13;;;35.80;71.80;;;;;;5074617;28;20545;-55
2022/08/26 09:00:44;;;;;;;23.77;9.98;;;36.10;70.10;;;;;;5069977;28;20058;-55
2022/08/26 09:03:50;;;;;;;28.50;10.70;;;35.80;70.50;;;;;;5080249;28;20020;-55
2022/08/26 09:06:17;;;;;;;27.50;9.85;;;36.10;70.50;;;;;;5089095;28;20443;-56
2022/08/26 09:08:46;;;;;;;25.08;10.48;;;36.70;68.20;;;;;;5088911;28;20506;-55
2022/08/26 09:11:13;;;;;;;27.73;9.38;;;36.20;70.00;;;;;;5083068;28;20039;-54
2022/08/26 09:13:46;;;;;;;23.50;9.13;;;36.90;68.20;;;;;;5065326;28;20033;-55
2022/08/26 09:16:17;;;;;;;20.90;9.13;;;37.80;65.30;;;;;;5068465;28;20492;-56
2022/08/26 09:19:06;;;;;;;26.67;10.35;;;37.90;65.90;;;;;;5068489;28;20075;-54
2022/08/26 09:21:32;;;;;;;25.20;9.52;;;37.60;65.50;;;;;;5066636;28;20043;-53
2022/08/26 09:23:59;;;;;;;28.88;9.80;;;36.80;67.40;;;;;;5067991;28;20025;-53
2022/08/26 09:26:41;;;;;;;21.42;9.07;;;36.30;67.30;;;;;;5068551;28;20094;-55
2022/08/26 09:29:26;;;;;;;21.45;9.07;;;35.70;68.50;;;;;;5069876;28;20480;-54
2022/08/26 09:32:11;;;;;;;25.23;9.68;;;35.10;69.60;;;;;;5063559;28;20017;-55
2022/08/26 09:34:58;;;;;;;28.52;9.98;;;34.40;71.00;;;;;;5066513;28;20070;-55
2022/08/26 09:37:34;;;;;;;26.73;10.82;;;33.80;72.10;;;;;;5068969;28;20056;-55
2022/08/26 09:40:35;;;;;;;20.27;9.93;;;33.50;73.60;;;;;;5073433;28;20503;-54
2022/08/26 09:43:18;;;;;;;27.05;10.23;;;32.90;74.70;;;;;;5068006;28;20159;-54
2022/08/26 09:45:53;;;;;;;24.58;10.90;;;32.50;75.50;;;;;;5069542;28;20017;-54
2022/08/26 09:48:34;;;;;;;27.52;10.60;;;32.00;76.90;;;;;;5068582;28;20021;-54
2022/08/26 09:51:26;;;;;;;24.67;9.98;;;31.80;77.50;;;;;;5067868;28;20082;-54
2022/08/26 09:54:00;;;;;;;38.60;11.50;;;31.30;79.20;;;;;;5067188;28;20028;-55
2022/08/26 09:56:32;;;;;;;33.45;11.77;;;30.70;80.70;;;;;;5068139;28;20138;-53
2022/08/26 09:58:59;;;;;;;28.98;10.93;;;30.40;81.70;;;;;;5067987;28;20020;-53
2022/08/26 10:01:36;;;;;;;35.72;11.52;;;30.00;83.00;;;;;;5067847;28;20089;-54
2022/08/26 10:04:06;;;;;;;27.30;11.80;;;29.80;83.50;;;;;;5063960;28;20222;-54
2022/08/26 10:06:54;;;;;;;31.40;11.02;;;29.60;83.90;;;;;;5059165;28;20029;-53
2022/08/26 10:09:20;;;;;;;25.50;11.38;;;29.80;83.90;;;;;;5064636;28;20082;-53
2022/08/26 10:11:52;;;;;;;28.15;11.45;;;30.50;83.30;;;;;;5079900;28;20452;-53
2022/08/26 10:14:20;;;;;;;34.05;11.73;;;31.40;81.30;;;;;;5086456;28;20024;-53
2022/08/26 10:17:00;;;;;;;31.10;11.02;;;32.40;79.60;;;;;;5087178;28;20024;-54
2022/08/26 10:19:53;;;;;;;36.42;11.02;;;32.90;76.60;;;;;;5089172;28;20032;-56
2022/08/26 10:22:45;;;;;;;32.28;10.48;;;32.90;75.50;;;;;;5088702;28;20020;-56
2022/08/26 10:25:15;;;;;;;22.38;9.55;;;33.00;75.20;;;;;;5088035;28;20086;-54
2022/08/26 10:27:59;;;;;;;31.60;9.88;;;33.70;74.70;;;;;;5081403;28;20023;-54
2022/08/26 10:30:36;;;;;;;29.45;10.75;;;34.20;72.90;;;;;;5079618;28;20040;-56
2022/08/26 10:33:07;;;;;;;29.38;8.80;;;34.80;71.60;;;;;;5089038;28;20027;-54
2022/08/26 10:35:40;;;;;;;26.50;8.20;;;36.60;68.80;;;;;;5090481;28;20425;-56
2022/08/26 10:38:14;;;;;;;30.60;9.02;;;37.80;67.20;;;;;;5092162;28;20531;-55
2022/08/26 10:41:05;;;;;;;26.90;7.70;;;39.00;64.30;;;;;;5092171;28;20024;-55
2022/08/26 10:43:47;;;;;;;25.00;8.02;;;39.80;61.30;;;;;;5083377;28;20040;-56
2022/08/26 10:46:17;;;;;;;20.25;8.05;;;38.60;61.30;;;;;;5092904;28;20038;-56
2022/08/26 10:48:46;;;;;;;20.63;8.88;;;38.70;62.70;;;;;;5085400;28;20052;-55
2022/08/26 10:51:16;;;;;;;27.63;8.32;;;39.70;60.50;;;;;;5071917;28;20020;-55
2022/08/26 10:53:54;;;;;;;22.77;8.38;;;39.80;60.30;;;;;;5076583;28;20032;-54
2022/08/26 10:56:49;;;;;;;106.53;90.32;;;39.60;59.70;;;;;;5090064;28;20020;-56
2022/08/26 10:59:44;;;;;;;30.98;11.18;;;40.20;59.50;;;;;;5078732;28;20020;-55
2022/08/26 11:02:24;;;;;;;24.27;7.45;;;40.00;58.10;;;;;;5090219;28;20020;-55
2022/08/26 11:05:05;;;;;;;18.35;7.30;;;38.90;60.40;;;;;;5092072;28;20024;-56
2022/08/26 11:07:45;;;;;;;22.95;8.07;;;38.20;60.50;;;;;;5062764;28;20036;-56
2022/08/26 11:10:19;;;;;;;27.33;7.55;;;37.30;61.30;;;;;;5072182;28;20032;-56
2022/08/26 11:13:11;;;;;;;22.98;8.52;;;36.70;61.90;;;;;;5069488;28;20445;-54
2022/08/26 11:15:37;;;;;;;23.83;8.07;;;36.60;62.60;;;;;;5070646;28;20029;-54
2022/08/26 11:18:08;;;;;;;25.38;8.23;;;36.00;63.60;;;;;;5071932;28;20055;-55
2022/08/26 11:20:42;;;;;;;31.17;9.27;;;35.20;65.60;;;;;;5070115;28;20383;-56
2022/08/26 11:23:11;;;;;;;21.02;8.88;;;34.30;66.60;;;;;;5072151;28;20051;-55
2022/08/26 11:25:57;;;;;;;20.35;8.45;;;33.60;68.10;;;;;;5066615;28;20073;-55
2022/08/26 11:28:43;;;;;;;27.45;9.65;;;33.30;69.30;;;;;;5083521;28;20046;-55
2022/08/26 11:31:17;;;;;;;17.73;8.40;;;32.90;68.50;;;;;;5073715;28;20020;-55
2022/08/26 11:33:42;;;;;;;28.40;10.07;;;32.60;69.60;;;;;;5067659;28;20032;-54
2022/08/26 11:36:09;;;;;;;18.77;8.23;;;32.30;71.10;;;;;;5069747;28;20028;-54
2022/08/26 11:38:41;;;;;;;51.53;32.10;;;32.10;71.00;;;;;;5070255;28;20086;-55
2022/08/26 11:41:16;;;;;;;27.10;11.45;;;31.80;72.00;;;;;;5068781;28;20107;-54
2022/08/26 11:43:42;;;;;;;36.20;10.05;;;31.40;72.10;;;;;;5068896;28;20044;-55
2022/08/26 11:46:10;;;;;;;26.42;10.68;;;31.10;72.30;;;;;;5051737;28;20060;-54
2022/08/26 11:48:39;;;;;;;26.60;10.02;;;31.10;73.20;;;;;;5071433;28;20012;-55
2022/08/26 11:51:19;;;;;;;26.20;9.30;;;31.00;73.80;;;;;;5081555;28;20481;-54
2022/08/26 11:53:45;;;;;;;29.23;9.68;;;31.00;73.30;;;;;;5091062;28;20112;-55
2022/08/26 11:56:41;;;;;;;24.52;8.77;;;30.80;74.00;;;;;;5090995;28;20110;-54
2022/08/26 11:59:09;;;;;;;21.15;9.63;;;30.80;74.00;;;;;;5087865;28;20042;-55
2022/08/26 12:01:39;;;;;;;32.10;9.98;;;30.70;74.70;;;;;;5088280;28;20335;-54
2022/08/26 12:04:15;;;;;;;23.77;9.60;;;30.40;75.00;;;;;;5089513;28;20085;-54
2022/08/26 12:06:47;;;;;;;24.17;9.38;;;30.30;76.60;;;;;;5078453;28;20151;-54
2022/08/26 12:09:21;;;;;;;24.40;9.30;;;30.30;76.90;;;;;;5069175;28;20013;-54
2022/08/26 12:11:47;;;;;;;20.48;9.25;;;30.40;76.70;;;;;;5069004;28;20029;-54
2022/08/26 12:14:19;;;;;;;27.17;10.02;;;30.40;76.70;;;;;;5069968;28;20115;-55
2022/08/26 12:16:45;;;;;;;18.50;8.95;;;30.40;77.20;;;;;;5082732;28;20020;-55
2022/08/26 12:19:40;;;;;;;23.98;9.25;;;30.50;78.10;;;;;;5079271;28;20097;-55
2022/08/26 12:22:06;;;;;;;24.70;8.38;;;30.40;75.50;;;;;;5071219;28;20040;-55
2022/08/26 12:24:31;;;;;;;25.67;9.75;;;30.50;75.50;;;;;;5089441;28;20036;-55
2022/08/26 12:27:22;;;;;;;20.98;9.30;;;30.70;75.20;;;;;;5090142;28;20023;-55
2022/08/26 12:30:08;;;;;;;20.30;9.15;;;30.80;75.20;;;;;;5078911;28;20383;-55
2022/08/26 12:32:36;;;;;;;19.77;7.85;;;30.90;74.20;;;;;;5088121;28;20027;-55
2022/08/26 12:35:02;;;;;;;22.20;8.38;;;31.00;73.90;;;;;;5079241;28;20047;-55
2022/08/26 12:37:32;;;;;;;25.48;8.88;;;31.00;73.20;;;;;;5087967;28;20039;-54
2022/08/26 12:40:17;;;;;;;;;;;30.80;72.00;;;;;;5080282;28;20024;-54
2022/08/26 12:42:42;;;;;;;19.13;8.20;;;30.90;72.20;;;;;;5047126;28;20422;-55
2022/08/26 12:45:08;;;;;;;23.02;8.15;;;31.00;71.40;;;;;;5073194;28;20060;-55
2022/08/26 12:47:37;;;;;;;18.67;8.90;;;30.90;72.30;;;;;;5088815;28;20020;-54
2022/08/26 12:50:15;;;;;;;26.92;8.93;;;30.60;72.50;;;;;;5087972;28;20053;-54